Time;durP1;ratioP1;P1;durP2;ratioP2;P2;SDS_P1;SDS_P2;PMS_P1;PMS_P2;Temp;Humidity;BMP_temperature;BMP_pressure;BME280_temperature;BME280_humidity;BME280_pressure;Samples;Min_cycle;Max_cycle;Signal;HPM_P1;HPM_P2
2023/11/27 00:00:24;;;;;;;4.03;1.88;;;;;;;;;;1031677;28;20030;-72
2023/11/27 00:00:55;;;;;;;4.93;2.92;;;;;;;;;;1031696;28;20085;-72
2023/11/27 00:01:25;;;;;;;2.78;1.80;;;;;;;;;;1031805;28;20026;-72
2023/11/27 00:01:56;;;;;;;5.63;2.67;;;;;;;;;;1031834;28;20049;-72
2023/11/27 00:02:26;;;;;;;1.42;1.38;;;;;;;;;;1031905;28;20127;-72
2023/11/27 00:02:56;;;;;;;1.13;1.00;;;;;;;;;;1031587;28;20022;-72
2023/11/27 00:03:28;;;;;;;15.80;1.77;;;;;;;;;;1031689;28;20027;-72
2023/11/27 00:03:58;;;;;;;2.90;2.38;;;;;;;;;;1031476;28;20062;-72
2023/11/27 00:04:29;;;;;;;9.23;1.90;;;;;;;;;;1031847;28;20022;-72
2023/11/27 00:04:59;;;;;;;2.92;2.72;;;;;;;;;;1031707;28;20037;-72
2023/11/27 00:05:30;;;;;;;1.67;1.58;;;;;;;;;;1031771;28;20176;-72
2023/11/27 00:06:00;;;;;;;0.70;0.70;;;;;;;;;;1031780;28;20053;-72
2023/11/27 00:06:30;;;;;;;1.83;1.73;;;;;;;;;;1031767;28;20455;-72
2023/11/27 00:07:01;;;;;;;3.72;2.15;;;;;;;;;;1031085;28;20387;-72
2023/11/27 00:07:31;;;;;;;1.95;1.58;;;;;;;;;;1029559;28;20029;-72
2023/11/27 00:08:02;;;;;;;3.45;1.52;;;;;;;;;;1031612;28;20030;-72
2023/11/27 00:08:33;;;;;;;5.78;2.50;;;;;;;;;;1031380;28;20109;-72
2023/11/27 00:09:04;;;;;;;1.75;1.65;;;;;;;;;;1030589;28;20026;-72
2023/11/27 00:09:35;;;;;;;1.15;1.15;;;;;;;;;;1030828;28;20034;-72
2023/11/27 00:10:05;;;;;;;3.22;2.38;;;;;;;;;;1031653;28;20014;-72
2023/11/27 00:10:36;;;;;;;2.55;1.65;;;;;;;;;;1031618;28;20402;-72
2023/11/27 00:11:06;;;;;;;2.88;2.67;;;;;;;;;;1031839;28;20057;-72
2023/11/27 00:11:38;;;;;;;1.13;1.02;;;;;;;;;;1031641;28;20109;-72
2023/11/27 00:12:09;;;;;;;1.48;1.38;;;;;;;;;;1031485;28;20054;-72
2023/11/27 00:12:39;;;;;;;6.90;2.75;;;;;;;;;;1027266;28;20033;-72
2023/11/27 00:13:10;;;;;;;3.35;2.92;;;;;;;;;;1027560;28;20121;-72
2023/11/27 00:13:40;;;;;;;2.25;1.95;;;;;;;;;;1027301;28;20029;-72
2023/11/27 00:14:11;;;;;;;0.88;0.88;;;;;;;;;;1031601;28;20052;-72
2023/11/27 00:14:41;;;;;;;1.98;1.88;;;;;;;;;;1031585;28;20072;-72
2023/11/27 00:15:13;;;;;;;1.67;1.52;;;;;;;;;;1031850;28;20077;-72
2023/11/27 00:15:44;;;;;;;1.55;1.27;;;;;;;;;;1031251;28;20030;-72
2023/11/27 00:16:15;;;;;;;1.80;1.70;;;;;;;;;;1031623;28;20026;-72
2023/11/27 00:16:45;;;;;;;2.50;2.05;;;;;;;;;;1031201;28;20042;-72
2023/11/27 00:17:15;;;;;;;2.15;1.95;;;;;;;;;;1031648;28;20026;-72
2023/11/27 00:17:46;;;;;;;1.52;1.42;;;;;;;;;;1031674;28;20057;-72
2023/11/27 00:18:16;;;;;;;1.92;1.42;;;;;;;;;;1031688;28;20072;-72
2023/11/27 00:18:47;;;;;;;2.13;1.98;;;;;;;;;;1031465;28;20026;-72
2023/11/27 00:19:17;;;;;;;3.95;2.30;;;;;;;;;;1031842;28;20014;-72
2023/11/27 00:19:48;;;;;;;0.43;0.43;;;;;;;;;;1031645;28;20034;-72
2023/11/27 00:20:18;;;;;;;7.80;1.75;;;;;;;;;;1031939;28;20022;-72
2023/11/27 00:20:49;;;;;;;2.75;2.55;;;;;;;;;;1031500;28;20026;-72
2023/11/27 00:21:19;;;;;;;2.95;2.17;;;;;;;;;;1031418;28;20053;-72
2023/11/27 00:21:50;;;;;;;2.58;2.00;;;;;;;;;;1031318;28;20105;-72
2023/11/27 00:22:20;;;;;;;3.75;2.15;;;;;;;;;;1031258;28;20027;-72
2023/11/27 00:22:50;;;;;;;3.58;2.65;;;;;;;;;;1031239;28;20026;-72
2023/11/27 00:23:21;;;;;;;1.73;1.52;;;;;;;;;;1031729;28;20026;-72
2023/11/27 00:23:51;;;;;;;3.05;2.80;;;;;;;;;;1031604;28;20105;-72
2023/11/27 00:24:22;;;;;;;7.22;3.83;;;;;;;;;;1031848;28;20030;-72
2023/11/27 00:24:52;;;;;;;4.18;1.67;;;;;;;;;;1031547;28;20026;-72
2023/11/27 00:25:23;;;;;;;0.93;0.93;;;;;;;;;;1031896;28;20041;-72
2023/11/27 00:25:53;;;;;;;15.20;3.20;;;;;;;;;;1031677;28;20521;-72
2023/11/27 00:26:24;;;;;;;4.57;2.55;;;;;;;;;;1031699;28;20037;-72
2023/11/27 00:26:54;;;;;;;5.13;2.85;;;;;;;;;;1031666;28;20511;-72
2023/11/27 00:27:24;;;;;;;2.92;2.58;;;;;;;;;;1031827;28;20027;-72
2023/11/27 00:27:55;;;;;;;1.35;1.35;;;;;;;;;;1031716;28;20041;-72
2023/11/27 00:28:25;;;;;;;11.48;3.58;;;;;;;;;;1031655;28;20018;-72
2023/11/27 00:28:56;;;;;;;0.80;0.75;;;;;;;;;;1031573;28;20493;-72
2023/11/27 00:29:28;;;;;;;1.27;1.17;;;;;;;;;;1031650;28;20030;-72
2023/11/27 00:29:59;;;;;;;3.22;1.40;;;;;;;;;;1031374;28;20105;-72
2023/11/27 00:30:30;;;;;;;2.03;1.70;;;;;;;;;;1031688;28;20034;-72
2023/11/27 00:31:00;;;;;;;4.95;2.50;;;;;;;;;;1031154;28;20113;-72
2023/11/27 00:31:32;;;;;;;1.70;1.58;;;;;;;;;;1031334;28;20113;-72
2023/11/27 00:32:02;;;;;;;3.95;3.35;;;;;;;;;;1031487;28;20057;-72
2023/11/27 00:32:33;;;;;;;1.70;1.60;;;;;;;;;;1031304;28;20026;-72
2023/11/27 00:33:03;;;;;;;1.40;1.30;;;;;;;;;;1030708;28;20023;-72
2023/11/27 00:33:34;;;;;;;2.40;1.92;;;;;;;;;;1030429;28;20112;-72
2023/11/27 00:34:04;;;;;;;5.93;3.92;;;;;;;;;;1031753;28;20529;-72
2023/11/27 00:34:35;;;;;;;2.03;1.85;;;;;;;;;;1031504;28;20482;-72
2023/11/27 00:35:06;;;;;;;6.40;3.67;;;;;;;;;;1031827;28;20501;-72
2023/11/27 00:35:36;;;;;;;3.20;2.10;;;;;;;;;;1031657;28;20038;-73
2023/11/27 00:36:08;;;;;;;2.75;1.67;;;;;;;;;;1031735;28;20030;-72
2023/11/27 00:36:38;;;;;;;2.38;2.17;;;;;;;;;;1031131;28;20129;-72
2023/11/27 00:37:08;;;;;;;3.08;2.17;;;;;;;;;;1031074;28;20026;-72
2023/11/27 00:37:39;;;;;;;1.30;1.25;;;;;;;;;;1031313;28;20022;-72
2023/11/27 00:38:09;;;;;;;3.00;2.38;;;;;;;;;;1031464;28;20113;-72
2023/11/27 00:38:40;;;;;;;2.70;2.05;;;;;;;;;;1031004;28;20160;-72
2023/11/27 00:39:10;;;;;;;2.92;2.65;;;;;;;;;;1031745;28;20101;-72
2023/11/27 00:39:41;;;;;;;17.98;2.60;;;;;;;;;;1031545;28;20549;-72
2023/11/27 00:40:11;;;;;;;1.80;1.35;;;;;;;;;;1031794;28;20508;-72
2023/11/27 00:40:42;;;;;;;19.77;2.58;;;;;;;;;;1031419;28;20479;-72
2023/11/27 00:41:14;;;;;;;2.72;2.45;;;;;;;;;;1031466;28;20022;-72
2023/11/27 00:41:44;;;;;;;9.90;4.05;;;;;;;;;;1031185;28;20037;-72
2023/11/27 00:42:15;;;;;;;2.78;2.55;;;;;;;;;;1030643;28;20030;-72
2023/11/27 00:42:45;;;;;;;3.90;3.58;;;;;;;;;;1030690;28;20026;-72
2023/11/27 00:43:16;;;;;;;6.75;4.43;;;;;;;;;;1031600;28;20069;-72
2023/11/27 00:43:46;;;;;;;4.57;3.13;;;;;;;;;;1031432;28;20030;-72
2023/11/27 00:44:17;;;;;;;3.92;2.63;;;;;;;;;;1031782;28;20031;-72
2023/11/27 00:44:48;;;;;;;2.83;2.63;;;;;;;;;;1030993;28;20158;-72
2023/11/27 00:45:18;;;;;;;4.15;1.75;;;;;;;;;;1030179;28;20579;-72
2023/11/27 00:45:49;;;;;;;15.18;5.40;;;;;;;;;;1030126;28;20022;-72
2023/11/27 00:46:19;;;;;;;18.88;8.90;;;;;;;;;;1031371;28;20018;-72
2023/11/27 00:46:49;;;;;;;49.53;21.52;;;;;;;;;;1031382;28;20076;-72
2023/11/27 00:47:20;;;;;;;37.83;13.80;;;;;;;;;;1031495;28;20036;-72
2023/11/27 00:47:50;;;;;;;35.67;12.85;;;;;;;;;;1031383;28;20025;-72
2023/11/27 00:48:22;;;;;;;43.33;10.85;;;;;;;;;;1031615;28;20034;-72
2023/11/27 00:48:52;;;;;;;25.20;11.70;;;;;;;;;;1031712;28;20077;-72
2023/11/27 00:49:23;;;;;;;8.10;4.40;;;;;;;;;;1031555;28;20160;-72
2023/11/27 00:49:53;;;;;;;8.80;3.38;;;;;;;;;;1031611;28;20117;-72
2023/11/27 00:50:24;;;;;;;12.23;5.53;;;;;;;;;;1031282;28;20026;-72
2023/11/27 00:50:54;;;;;;;17.67;8.23;;;;;;;;;;1027078;28;20057;-72
2023/11/27 00:51:25;;;;;;;23.55;8.20;;;;;;;;;;1027100;28;20026;-72
2023/11/27 00:51:55;;;;;;;36.25;13.32;;;;;;;;;;1027473;28;20026;-72
2023/11/27 00:52:26;;;;;;;13.18;5.35;;;;;;;;;;1031235;28;20014;-72
2023/11/27 00:52:56;;;;;;;13.25;6.93;;;;;;;;;;1031216;28;20030;-72
2023/11/27 00:53:26;;;;;;;18.67;5.57;;;;;;;;;;1030939;28;20109;-72
2023/11/27 00:53:57;;;;;;;6.70;3.25;;;;;;;;;;1031150;28;20034;-72
2023/11/27 00:54:27;;;;;;;7.35;3.75;;;;;;;;;;1031130;28;20484;-72
2023/11/27 00:54:58;;;;;;;17.23;8.35;;;;;;;;;;1031173;28;20026;-72
2023/11/27 00:55:28;;;;;;;19.75;8.15;;;;;;;;;;1031048;28;20445;-72
2023/11/27 00:55:59;;;;;;;60.65;22.98;;;;;;;;;;1031164;28;20026;-72
2023/11/27 00:56:29;;;;;;;94.32;33.80;;;;;;;;;;1031593;28;20064;-72
2023/11/27 00:57:00;;;;;;;100.15;37.45;;;;;;;;;;1031545;28;20026;-72
2023/11/27 00:57:30;;;;;;;89.97;34.80;;;;;;;;;;1031373;28;20505;-72
2023/11/27 00:58:01;;;;;;;69.40;28.83;;;;;;;;;;1032011;28;20032;-72
2023/11/27 00:58:31;;;;;;;40.83;16.23;;;;;;;;;;1031036;28;20084;-72
2023/11/27 00:59:02;;;;;;;21.52;10.70;;;;;;;;;;1031059;28;20474;-72
2023/11/27 00:59:38;;;;;;;12.48;5.97;;;;;;;;;;1031031;28;20022;-72
2023/11/27 01:00:10;;;;;;;62.63;20.10;;;;;;;;;;1031344;28;20759;-72
2023/11/27 01:00:41;;;;;;;64.30;25.77;;;;;;;;;;1030968;28;20077;-72
2023/11/27 01:01:11;;;;;;;63.75;16.20;;;;;;;;;;1031699;28;20117;-72
2023/11/27 01:01:42;;;;;;;39.70;12.90;;;;;;;;;;1031310;28;20604;-72
2023/11/27 01:02:12;;;;;;;33.33;11.02;;;;;;;;;;1031748;28;20502;-72
2023/11/27 01:02:44;;;;;;;26.73;12.20;;;;;;;;;;1030964;28;20026;-72
2023/11/27 01:03:14;;;;;;;34.83;13.93;;;;;;;;;;1031324;28;20474;-72
2023/11/27 01:03:45;;;;;;;43.17;13.73;;;;;;;;;;1030928;28;20034;-72
2023/11/27 01:04:16;;;;;;;27.45;9.55;;;;;;;;;;1030987;28;20029;-72
2023/11/27 01:04:46;;;;;;;14.52;6.22;;;;;;;;;;1031008;28;20026;-72
2023/11/27 01:05:17;;;;;;;22.45;9.07;;;;;;;;;;1029242;28;20026;-72
2023/11/27 01:05:48;;;;;;;42.65;11.60;;;;;;;;;;1029972;28;20023;-72
2023/11/27 01:06:18;;;;;;;26.95;11.13;;;;;;;;;;1030836;28;20109;-72
2023/11/27 01:06:52;;;;;;;27.58;9.00;;;;;;;;;;1030029;28;20025;-72
2023/11/27 01:07:22;;;;;;;34.80;12.00;;;;;;;;;;1030094;28;20112;-72
2023/11/27 01:07:52;;;;;;;26.05;10.38;;;;;;;;;;1030371;28;20380;-72
2023/11/27 01:08:24;;;;;;;28.63;11.35;;;;;;;;;;1030834;28;20030;-72
2023/11/27 01:08:54;;;;;;;17.90;6.78;;;;;;;;;;1030443;28;20033;-72
2023/11/27 01:09:25;;;;;;;23.60;8.07;;;;;;;;;;1031212;28;20022;-72
2023/11/27 01:09:57;;;;;;;11.30;5.15;;;;;;;;;;1030257;28;20116;-72
2023/11/27 01:10:27;;;;;;;9.30;5.40;;;;;;;;;;1029246;28;20027;-72
2023/11/27 01:10:58;;;;;;;8.15;5.28;;;;;;;;;;1030556;28;20109;-72
2023/11/27 01:11:28;;;;;;;13.10;5.72;;;;;;;;;;1031013;28;20049;-72
2023/11/27 01:11:59;;;;;;;16.33;4.47;;;;;;;;;;1030219;28;20101;-72
2023/11/27 01:12:29;;;;;;;5.88;4.50;;;;;;;;;;1030735;28;20441;-72
2023/11/27 01:13:00;;;;;;;8.48;3.25;;;;;;;;;;1031151;28;20540;-72
2023/11/27 01:13:30;;;;;;;27.65;5.15;;;;;;;;;;1030075;28;20084;-72
2023/11/27 01:14:00;;;;;;;5.70;5.28;;;;;;;;;;1031303;28;20018;-72
2023/11/27 01:14:31;;;;;;;11.88;4.80;;;;;;;;;;1030544;28;20034;-72
2023/11/27 01:15:02;;;;;;;12.88;4.65;;;;;;;;;;1030208;28;20474;-72
2023/11/27 01:15:32;;;;;;;9.38;4.75;;;;;;;;;;1030238;28;20510;-72
2023/11/27 01:16:03;;;;;;;23.80;4.65;;;;;;;;;;1031013;28;20092;-72
2023/11/27 01:16:33;;;;;;;9.35;4.35;;;;;;;;;;1030068;28;20093;-72
2023/11/27 01:17:04;;;;;;;17.50;8.77;;;;;;;;;;1030445;28;20402;-72
2023/11/27 01:17:34;;;;;;;29.27;8.50;;;;;;;;;;1029753;28;20030;-72
2023/11/27 01:18:05;;;;;;;20.90;7.72;;;;;;;;;;1029775;28;20037;-72
2023/11/27 01:18:36;;;;;;;12.80;5.32;;;;;;;;;;1029247;28;20038;-72
2023/11/27 01:19:08;;;;;;;14.68;6.72;;;;;;;;;;1030195;28;20022;-72
2023/11/27 01:19:38;;;;;;;9.95;5.10;;;;;;;;;;1030096;28;20109;-72
2023/11/27 01:20:09;;;;;;;20.45;7.45;;;;;;;;;;1027687;28;20029;-72
2023/11/27 01:20:40;;;;;;;19.52;4.35;;;;;;;;;;1030054;28;20850;-72
2023/11/27 01:21:10;;;;;;;12.18;4.43;;;;;;;;;;1029204;28;20058;-72
2023/11/27 01:21:41;;;;;;;13.73;6.55;;;;;;;;;;1030424;28;20033;-72
2023/11/27 01:22:11;;;;;;;2.03;1.65;;;;;;;;;;1030858;28;20022;-72
2023/11/27 01:22:42;;;;;;;4.13;3.40;;;;;;;;;;1030394;28;20046;-72
2023/11/27 01:23:12;;;;;;;2.92;2.70;;;;;;;;;;1029087;28;20486;-72
2023/11/27 01:23:42;;;;;;;12.48;4.00;;;;;;;;;;1028195;28;20022;-72
2023/11/27 01:24:13;;;;;;;12.00;5.07;;;;;;;;;;1030231;28;20032;-72
2023/11/27 01:24:43;;;;;;;7.05;4.18;;;;;;;;;;1030083;28;20544;-72
2023/11/27 01:25:14;;;;;;;11.30;5.18;;;;;;;;;;1028493;28;20078;-72
2023/11/27 01:25:45;;;;;;;11.77;4.88;;;;;;;;;;1030082;28;20066;-72
2023/11/27 01:26:15;;;;;;;7.90;3.92;;;;;;;;;;1031066;28;20022;-72
2023/11/27 01:26:46;;;;;;;12.65;5.40;;;;;;;;;;1030937;28;20030;-72
2023/11/27 01:27:17;;;;;;;13.20;6.78;;;;;;;;;;1030222;28;20420;-72
2023/11/27 01:27:47;;;;;;;12.07;3.75;;;;;;;;;;1028154;28;20446;-72
2023/11/27 01:28:18;;;;;;;4.40;4.00;;;;;;;;;;1028883;28;20056;-72
2023/11/27 01:28:48;;;;;;;7.00;2.78;;;;;;;;;;1026801;28;20395;-72
2023/11/27 01:29:21;;;;;;;6.38;3.65;;;;;;;;;;1027816;28;20475;-72
2023/11/27 01:29:51;;;;;;;8.68;4.38;;;;;;;;;;1026445;28;20030;-72
2023/11/27 01:30:22;;;;;;;9.75;4.30;;;;;;;;;;1027104;28;20507;-72
2023/11/27 01:30:54;;;;;;;8.80;5.32;;;;;;;;;;1030061;28;20030;-72
2023/11/27 01:31:24;;;;;;;7.22;5.35;;;;;;;;;;1030421;28;20114;-72
2023/11/27 01:31:55;;;;;;;4.75;3.17;;;;;;;;;;1030723;28;20088;-72
2023/11/27 01:32:26;;;;;;;3.80;2.30;;;;;;;;;;1028432;28;20060;-72
2023/11/27 01:32:59;;;;;;;9.63;4.35;;;;;;;;;;1029670;28;20054;-72
2023/11/27 01:33:30;;;;;;;9.18;2.80;;;;;;;;;;1030162;28;20544;-72
2023/11/27 01:34:01;;;;;;;7.78;3.85;;;;;;;;;;1029835;28;20027;-72
2023/11/27 01:34:32;;;;;;;9.98;4.05;;;;;;;;;;1029391;28;20819;-72
2023/11/27 01:35:03;;;;;;;23.58;4.68;;;;;;;;;;1029481;28;20508;-72
2023/11/27 01:35:33;;;;;;;2.53;2.30;;;;;;;;;;1028028;28;20022;-72
2023/11/27 01:36:04;;;;;;;2.00;1.90;;;;;;;;;;1025570;28;20034;-72
2023/11/27 01:36:34;;;;;;;10.10;3.78;;;;;;;;;;1030760;28;20022;-72
2023/11/27 01:37:05;;;;;;;3.83;2.47;;;;;;;;;;1028670;28;20038;-72
2023/11/27 01:37:35;;;;;;;11.13;2.05;;;;;;;;;;1030008;28;20061;-72
2023/11/27 01:38:06;;;;;;;4.63;4.18;;;;;;;;;;1030566;28;20029;-72
2023/11/27 01:38:36;;;;;;;5.40;3.80;;;;;;;;;;1030113;28;20461;-72
2023/11/27 01:39:08;;;;;;;21.00;4.55;;;;;;;;;;1029745;28;20433;-72
2023/11/27 01:39:40;;;;;;;3.40;1.77;;;;;;;;;;1028286;28;20076;-72
2023/11/27 01:40:11;;;;;;;6.28;2.72;;;;;;;;;;1030620;28;20422;-72
2023/11/27 01:40:41;;;;;;;9.88;2.33;;;;;;;;;;1030086;28;20033;-72
2023/11/27 01:41:12;;;;;;;3.55;2.50;;;;;;;;;;1029740;28;20176;-72
2023/11/27 01:41:42;;;;;;;7.47;2.75;;;;;;;;;;1029557;28;20034;-72
2023/11/27 01:42:13;;;;;;;2.97;2.72;;;;;;;;;;1030644;28;20033;-72
2023/11/27 01:42:43;;;;;;;3.65;3.35;;;;;;;;;;1030781;28;20038;-72
2023/11/27 01:43:17;;;;;;;30.13;4.38;;;;;;;;;;1030231;28;20113;-72
2023/11/27 01:43:47;;;;;;;5.45;3.42;;;;;;;;;;1029784;28;20030;-72
2023/11/27 01:44:18;;;;;;;4.63;4.22;;;;;;;;;;1031132;28;20534;-72
2023/11/27 01:44:48;;;;;;;55.80;5.35;;;;;;;;;;1031026;28;20504;-72
2023/11/27 01:45:18;;;;;;;18.45;4.40;;;;;;;;;;1029785;28;20385;-72
2023/11/27 01:45:55;;;;;;;12.52;3.65;;;;;;;;;;1030066;28;20499;-72
2023/11/27 01:46:26;;;;;;;3.47;3.17;;;;;;;;;;1030883;28;20026;-73
2023/11/27 01:46:58;;;;;;;7.22;4.68;;;;;;;;;;1029712;28;20073;-72
2023/11/27 01:47:28;;;;;;;8.00;5.88;;;;;;;;;;1030417;28;20117;-71
2023/11/27 01:47:59;;;;;;;18.92;9.15;;;;;;;;;;1025775;28;20121;-71
2023/11/27 01:48:29;;;;;;;11.93;7.00;;;;;;;;;;1026008;28;20050;-71
2023/11/27 01:49:00;;;;;;;17.58;7.50;;;;;;;;;;1030240;28;20030;-72
2023/11/27 01:49:32;;;;;;;11.80;7.55;;;;;;;;;;1029349;28;20038;-72
2023/11/27 01:50:03;;;;;;;36.00;5.18;;;;;;;;;;1030450;28;20045;-72
2023/11/27 01:50:34;;;;;;;10.93;6.72;;;;;;;;;;1028498;28;20823;-72
2023/11/27 01:51:05;;;;;;;9.93;4.22;;;;;;;;;;1029989;28;20023;-72
2023/11/27 01:51:35;;;;;;;6.22;3.00;;;;;;;;;;1029279;28;20046;-72
2023/11/27 01:52:07;;;;;;;11.35;3.20;;;;;;;;;;1028141;28;20034;-72
2023/11/27 01:52:39;;;;;;;7.40;3.25;;;;;;;;;;1028469;28;20081;-72
2023/11/27 01:53:09;;;;;;;4.32;3.17;;;;;;;;;;1027434;28;20027;-72
2023/11/27 01:53:40;;;;;;;3.95;3.65;;;;;;;;;;1028151;28;20022;-72
2023/11/27 01:54:11;;;;;;;6.68;4.53;;;;;;;;;;1027806;28;20056;-72
2023/11/27 01:54:43;;;;;;;14.00;6.85;;;;;;;;;;1028059;28;20022;-72
2023/11/27 01:55:14;;;;;;;7.38;4.57;;;;;;;;;;1028417;28;20596;-71
2023/11/27 01:55:46;;;;;;;7.70;5.43;;;;;;;;;;1027880;28;20035;-72
2023/11/27 01:56:16;;;;;;;9.85;5.72;;;;;;;;;;1028872;28;20398;-72
2023/11/27 01:56:48;;;;;;;8.27;4.90;;;;;;;;;;1029832;28;20033;-72
2023/11/27 01:57:20;;;;;;;4.18;3.70;;;;;;;;;;1029547;28;20038;-72
2023/11/27 01:57:50;;;;;;;5.93;5.35;;;;;;;;;;1031550;28;20384;-74
2023/11/27 01:58:21;;;;;;;7.50;6.82;;;;;;;;;;1030512;28;20077;-73
2023/11/27 01:58:53;;;;;;;5.72;5.25;;;;;;;;;;1030228;28;20036;-72
2023/11/27 01:59:24;;;;;;;1.67;1.58;;;;;;;;;;1031037;28;20521;-72
2023/11/27 01:59:55;;;;;;;8.07;6.90;;;;;;;;;;1031019;28;20026;-71
2023/11/27 02:00:25;;;;;;;10.63;7.07;;;;;;;;;;1031240;28;20081;-72
2023/11/27 02:00:56;;;;;;;5.78;5.00;;;;;;;;;;1031592;28;20385;-72
2023/11/27 02:01:28;;;;;;;9.20;6.50;;;;;;;;;;1030816;28;20033;-72
2023/11/27 02:01:59;;;;;;;26.55;6.72;;;;;;;;;;1031216;28;20191;-72
2023/11/27 02:02:30;;;;;;;7.90;6.22;;;;;;;;;;1030786;28;20018;-72
2023/11/27 02:03:01;;;;;;;12.30;6.93;;;;;;;;;;1031468;28;20037;-72
2023/11/27 02:03:31;;;;;;;8.05;6.03;;;;;;;;;;1030926;28;20022;-72
2023/11/27 02:04:02;;;;;;;5.05;4.63;;;;;;;;;;1029881;28;20072;-72
2023/11/27 02:04:33;;;;;;;8.52;5.22;;;;;;;;;;1032749;28;20442;-72
2023/11/27 02:05:04;;;;;;;12.07;3.83;;;;;;;;;;1033935;28;20085;-72
2023/11/27 02:05:35;;;;;;;7.20;5.97;;;;;;;;;;1032225;28;20468;-72
2023/11/27 02:06:05;;;;;;;4.38;3.97;;;;;;;;;;1031394;28;20096;-72
2023/11/27 02:06:36;;;;;;;6.28;4.03;;;;;;;;;;1030711;28;20053;-72
2023/11/27 02:07:07;;;;;;;4.07;3.75;;;;;;;;;;1031157;28;20523;-72
2023/11/27 02:07:37;;;;;;;4.88;4.53;;;;;;;;;;1027045;28;20053;-71
2023/11/27 02:08:08;;;;;;;9.15;4.72;;;;;;;;;;1029346;28;20037;-72
2023/11/27 02:08:39;;;;;;;2.55;2.35;;;;;;;;;;1030574;28;20019;-72
2023/11/27 02:09:10;;;;;;;7.53;2.65;;;;;;;;;;1029832;28;20026;-72
2023/11/27 02:09:40;;;;;;;6.07;3.85;;;;;;;;;;1031080;28;20105;-72
2023/11/27 02:10:11;;;;;;;7.95;3.92;;;;;;;;;;1031473;28;20509;-72
2023/11/27 02:10:42;;;;;;;5.65;5.25;;;;;;;;;;1031191;28;20033;-72
2023/11/27 02:11:18;;;;;;;17.27;6.50;;;;;;;;;;1026953;28;20065;-72
2023/11/27 02:11:49;;;;;;;9.85;6.97;;;;;;;;;;1031345;28;20634;-72
2023/11/27 02:12:19;;;;;;;9.70;4.22;;;;;;;;;;1031229;28;20029;-72
2023/11/27 02:12:50;;;;;;;17.52;5.95;;;;;;;;;;1029320;28;20104;-72
2023/11/27 02:13:21;;;;;;;13.65;6.10;;;;;;;;;;1029701;28;20022;-72
2023/11/27 02:13:52;;;;;;;4.45;4.15;;;;;;;;;;1028823;28;20036;-72
2023/11/27 02:14:22;;;;;;;7.57;6.28;;;;;;;;;;1028419;28;20510;-72
2023/11/27 02:14:53;;;;;;;3.47;3.20;;;;;;;;;;1029651;28;20146;-72
2023/11/27 02:15:23;;;;;;;6.95;6.47;;;;;;;;;;1029851;28;20061;-72
2023/11/27 02:15:54;;;;;;;12.35;7.18;;;;;;;;;;1029102;28;20034;-72
2023/11/27 02:16:26;;;;;;;7.85;3.63;;;;;;;;;;1031295;28;20399;-72
2023/11/27 02:16:57;;;;;;;3.92;3.63;;;;;;;;;;1031114;28;20026;-72
2023/11/27 02:17:27;;;;;;;13.77;4.53;;;;;;;;;;1029740;28;20486;-72
2023/11/27 02:17:58;;;;;;;5.60;5.10;;;;;;;;;;1031384;28;20033;-72
2023/11/27 02:18:28;;;;;;;9.25;6.90;;;;;;;;;;1030935;28;20026;-72
2023/11/27 02:18:59;;;;;;;13.45;8.13;;;;;;;;;;1030675;28;20034;-73
2023/11/27 02:19:29;;;;;;;4.63;3.75;;;;;;;;;;1032082;28;20018;-72
2023/11/27 02:19:59;;;;;;;3.72;2.90;;;;;;;;;;1031283;28;20494;-72
2023/11/27 02:20:30;;;;;;;4.03;3.67;;;;;;;;;;1031457;28;20022;-72
2023/11/27 02:21:01;;;;;;;15.43;6.30;;;;;;;;;;1026875;28;20038;-72
2023/11/27 02:21:32;;;;;;;31.15;6.90;;;;;;;;;;1022621;29;20133;-72
2023/11/27 02:22:02;;;;;;;7.18;4.72;;;;;;;;;;1023757;28;20428;-72
2023/11/27 02:22:33;;;;;;;23.35;8.80;;;;;;;;;;1029492;28;20538;-72
2023/11/27 02:23:06;;;;;;;6.88;2.92;;;;;;;;;;1031028;28;20029;-72
2023/11/27 02:23:39;;;;;;;5.45;3.42;;;;;;;;;;1030740;28;20480;-72
2023/11/27 02:24:10;;;;;;;11.75;6.75;;;;;;;;;;1031462;28;20347;-72
2023/11/27 02:24:41;;;;;;;9.90;3.45;;;;;;;;;;1031662;28;20315;-72
2023/11/27 02:25:11;;;;;;;9.55;6.07;;;;;;;;;;1029384;28;20085;-72
2023/11/27 02:25:42;;;;;;;6.75;4.60;;;;;;;;;;1029859;28;20510;-72
2023/11/27 02:26:13;;;;;;;11.38;4.30;;;;;;;;;;1026653;28;20035;-72
2023/11/27 02:26:43;;;;;;;9.00;6.10;;;;;;;;;;1026575;28;20039;-72
2023/11/27 02:27:14;;;;;;;11.40;7.90;;;;;;;;;;1027316;28;20022;-72
2023/11/27 02:27:44;;;;;;;17.05;5.40;;;;;;;;;;1031308;28;20255;-72
2023/11/27 02:28:14;;;;;;;7.68;6.25;;;;;;;;;;1031388;28;20050;-72
2023/11/27 02:28:46;;;;;;;4.90;4.25;;;;;;;;;;1031065;28;20834;-72
2023/11/27 02:29:16;;;;;;;12.85;4.78;;;;;;;;;;1031369;28;20093;-72
2023/11/27 02:29:47;;;;;;;18.65;7.20;;;;;;;;;;1031428;28;20026;-72
2023/11/27 02:30:20;;;;;;;12.07;4.97;;;;;;;;;;1031336;28;20030;-72
2023/11/27 02:30:50;;;;;;;14.40;6.35;;;;;;;;;;1029422;28;20080;-72
2023/11/27 02:31:21;;;;;;;15.80;6.28;;;;;;;;;;1025278;28;20158;-71
2023/11/27 02:31:51;;;;;;;8.05;3.58;;;;;;;;;;1025974;28;20479;-71
2023/11/27 02:32:21;;;;;;;7.95;5.68;;;;;;;;;;1025902;28;20368;-73
2023/11/27 02:32:52;;;;;;;11.82;5.72;;;;;;;;;;1030192;28;20041;-72
2023/11/27 02:33:25;;;;;;;11.27;4.93;;;;;;;;;;1031287;28;20030;-72
2023/11/27 02:33:56;;;;;;;10.02;8.45;;;;;;;;;;1031056;28;20390;-72
2023/11/27 02:34:26;;;;;;;6.80;5.30;;;;;;;;;;1031277;28;20026;-71
2023/11/27 02:34:57;;;;;;;3.70;3.33;;;;;;;;;;1031496;28;20049;-71
2023/11/27 02:35:28;;;;;;;18.17;8.35;;;;;;;;;;1030900;28;20142;-71
2023/11/27 02:35:58;;;;;;;5.95;4.43;;;;;;;;;;1030973;28;20483;-71
2023/11/27 02:36:35;;;;;;;28.92;8.43;;;;;;;;;;1031320;28;20033;-72
2023/11/27 02:37:05;;;;;;;5.40;4.40;;;;;;;;;;1029810;28;20054;-72
2023/11/27 02:37:36;;;;;;;6.78;5.28;;;;;;;;;;1028044;28;20049;-72
2023/11/27 02:38:07;;;;;;;4.60;4.18;;;;;;;;;;1026185;28;20106;-72
2023/11/27 02:38:37;;;;;;;16.45;6.88;;;;;;;;;;1023500;28;20530;-71
2023/11/27 02:39:08;;;;;;;16.13;5.70;;;;;;;;;;1026198;28;20130;-71
2023/11/27 02:39:38;;;;;;;7.22;5.70;;;;;;;;;;1028646;28;20026;-71
2023/11/27 02:40:11;;;;;;;3.90;3.50;;;;;;;;;;1031808;28;20033;-72
2023/11/27 02:40:41;;;;;;;6.00;5.45;;;;;;;;;;1028216;28;20038;-72
2023/11/27 02:41:12;;;;;;;13.27;6.50;;;;;;;;;;1024480;28;20031;-72
2023/11/27 02:41:42;;;;;;;3.28;2.97;;;;;;;;;;1021483;29;20323;-72
2023/11/27 02:42:13;;;;;;;6.93;5.95;;;;;;;;;;1021837;28;20019;-72
2023/11/27 02:42:44;;;;;;;6.60;4.60;;;;;;;;;;1024832;28;20558;-72
2023/11/27 02:43:14;;;;;;;39.33;5.68;;;;;;;;;;1025906;28;20082;-72
2023/11/27 02:43:45;;;;;;;11.77;7.05;;;;;;;;;;1029364;28;20155;-72
2023/11/27 02:44:15;;;;;;;6.10;5.60;;;;;;;;;;1030057;28;20429;-72
2023/11/27 02:44:46;;;;;;;14.55;4.68;;;;;;;;;;1029627;28;20041;-72
2023/11/27 02:45:16;;;;;;;13.10;4.78;;;;;;;;;;1028670;28;20038;-71
2023/11/27 02:45:47;;;;;;;5.15;4.78;;;;;;;;;;1028386;28;20026;-71
2023/11/27 02:46:17;;;;;;;12.90;5.10;;;;;;;;;;1029026;28;20818;-71
2023/11/27 02:46:48;;;;;;;9.18;5.78;;;;;;;;;;1027227;28;20030;-71
2023/11/27 02:47:18;;;;;;;10.95;6.10;;;;;;;;;;1027458;28;20502;-71
2023/11/27 02:47:49;;;;;;;8.65;6.55;;;;;;;;;;1026199;28;20666;-71
2023/11/27 02:48:19;;;;;;;9.55;6.72;;;;;;;;;;1028168;28;21259;-72
2023/11/27 02:48:50;;;;;;;19.10;5.65;;;;;;;;;;1027635;28;20027;-72
2023/11/27 02:49:21;;;;;;;9.05;4.32;;;;;;;;;;1029969;28;20034;-72
2023/11/27 02:49:53;;;;;;;3.42;3.15;;;;;;;;;;1028981;28;20030;-71
2023/11/27 02:50:24;;;;;;;18.65;4.30;;;;;;;;;;1029218;28;20196;-71
2023/11/27 02:50:54;;;;;;;16.25;6.47;;;;;;;;;;1029860;28;20105;-72
2023/11/27 02:51:25;;;;;;;10.18;6.63;;;;;;;;;;1027071;28;20030;-72
2023/11/27 02:51:56;;;;;;;5.18;3.70;;;;;;;;;;1030521;28;20026;-72
2023/11/27 02:52:26;;;;;;;14.02;5.28;;;;;;;;;;1029507;28;20018;-72
2023/11/27 02:52:57;;;;;;;31.85;7.75;;;;;;;;;;1029293;28;20396;-72
2023/11/27 02:53:29;;;;;;;4.68;4.22;;;;;;;;;;1029430;28;20026;-72
2023/11/27 02:53:59;;;;;;;12.30;7.35;;;;;;;;;;1027785;28;20466;-71
2023/11/27 02:54:30;;;;;;;12.05;8.20;;;;;;;;;;1013571;28;20019;-71
2023/11/27 02:55:00;;;;;;;19.55;9.40;;;;;;;;;;1025940;28;20582;-71
2023/11/27 02:55:31;;;;;;;16.30;6.90;;;;;;;;;;1026936;28;20455;-71
2023/11/27 02:56:01;;;;;;;7.45;3.55;;;;;;;;;;1026964;28;20141;-71
2023/11/27 02:56:32;;;;;;;31.40;9.52;;;;;;;;;;1030657;28;20057;-71
2023/11/27 02:57:03;;;;;;;12.65;8.93;;;;;;;;;;1032370;28;20034;-71
2023/11/27 02:57:36;;;;;;;11.40;5.35;;;;;;;;;;1032004;28;20577;-71
2023/11/27 02:58:10;;;;;;;30.30;7.15;;;;;;;;;;1030278;28;20038;-71
2023/11/27 02:58:41;;;;;;;7.20;5.30;;;;;;;;;;1028988;28;20041;-72
2023/11/27 02:59:11;;;;;;;29.77;8.73;;;;;;;;;;1029707;28;20022;-72
2023/11/27 02:59:42;;;;;;;7.78;6.03;;;;;;;;;;1027032;28;20038;-72
2023/11/27 03:00:12;;;;;;;17.92;8.88;;;;;;;;;;1026176;28;20027;-72
2023/11/27 03:00:43;;;;;;;12.82;9.43;;;;;;;;;;1028307;28;20109;-72
2023/11/27 03:01:14;;;;;;;6.40;5.05;;;;;;;;;;1029783;28;20026;-72
2023/11/27 03:01:45;;;;;;;10.75;4.45;;;;;;;;;;1027517;28;20581;-72
2023/11/27 03:02:16;;;;;;;3.45;2.47;;;;;;;;;;1022601;28;20030;-72
2023/11/27 03:02:46;;;;;;;15.98;6.78;;;;;;;;;;1019956;28;20038;-72
2023/11/27 03:03:17;;;;;;;5.38;4.97;;;;;;;;;;1020137;28;20034;-71